Terminal Aerodrome Forecast
Issued by NWS Medford, OR

Home | Current Version | Previous Version | Text Only | Print | Product List | Glossary On
Versions: 1 2 3 4 5 6 7 8 9 10 11 12 13 14 15 16 17 18
834
FTUS46 KMFR 221748
TAFMFR
TAF
KMFR 221748Z 2218/2318 29003KT P6SM -SHRA SCT020 OVC040
     FM222100 33009KT P6SM VCSH SCT035 OVC050
     FM230300 VRB03KT P6SM SCT015 OVC025=

USA.gov is the U.S. government's official web portal to all federal, state and local government web resources and services.